sensor_id;sensor_type;location;lat;lon;timestamp;P1;durP1;ratioP1;P2;durP2;ratioP2
33802;SDS011;20110;53.120;5.786;2023-05-10T00:00:34;17.10;;;10.85;;
33802;SDS011;20110;53.120;5.786;2023-05-10T00:02:59;14.07;;;10.40;;
33802;SDS011;20110;53.120;5.786;2023-05-10T00:05:25;12.50;;;9.55;;
33802;SDS011;20110;53.120;5.786;2023-05-10T00:07:51;10.30;;;8.35;;
33802;SDS011;20110;53.120;5.786;2023-05-10T00:10:17;7.10;;;6.40;;
33802;SDS011;20110;53.120;5.786;2023-05-10T00:12:42;6.15;;;5.65;;
33802;SDS011;20110;53.120;5.786;2023-05-10T00:15:08;6.95;;;6.03;;
33802;SDS011;20110;53.120;5.786;2023-05-10T00:17:35;7.68;;;6.43;;
33802;SDS011;20110;53.120;5.786;2023-05-10T00:20:01;9.82;;;6.95;;
33802;SDS011;20110;53.120;5.786;2023-05-10T00:22:27;14.65;;;8.13;;
33802;SDS011;20110;53.120;5.786;2023-05-10T00:24:52;14.43;;;8.70;;
33802;SDS011;20110;53.120;5.786;2023-05-10T00:27:18;14.43;;;9.65;;
33802;SDS011;20110;53.120;5.786;2023-05-10T00:29:44;15.38;;;11.20;;
33802;SDS011;20110;53.120;5.786;2023-05-10T00:32:10;15.70;;;10.90;;
33802;SDS011;20110;53.120;5.786;2023-05-10T00:34:36;12.98;;;9.10;;
33802;SDS011;20110;53.120;5.786;2023-05-10T00:37:01;17.20;;;12.05;;
33802;SDS011;20110;53.120;5.786;2023-05-10T00:39:27;24.70;;;12.88;;
33802;SDS011;20110;53.120;5.786;2023-05-10T00:41:54;23.88;;;13.63;;
33802;SDS011;20110;53.120;5.786;2023-05-10T00:44:20;23.75;;;14.48;;
33802;SDS011;20110;53.120;5.786;2023-05-10T00:46:46;24.90;;;15.05;;
33802;SDS011;20110;53.120;5.786;2023-05-10T00:49:13;31.50;;;16.85;;
33802;SDS011;20110;53.120;5.786;2023-05-10T00:51:39;39.70;;;16.35;;
33802;SDS011;20110;53.120;5.786;2023-05-10T00:54:08;51.80;;;17.23;;
33802;SDS011;20110;53.120;5.786;2023-05-10T00:56:38;67.63;;;18.30;;
33802;SDS011;20110;53.120;5.786;2023-05-10T00:59:05;69.30;;;20.08;;
33802;SDS011;20110;53.120;5.786;2023-05-10T01:01:33;81.63;;;21.75;;
33802;SDS011;20110;53.120;5.786;2023-05-10T01:04:01;76.22;;;25.23;;
33802;SDS011;20110;53.120;5.786;2023-05-10T01:06:28;55.22;;;20.63;;
33802;SDS011;20110;53.120;5.786;2023-05-10T01:08:54;76.35;;;22.30;;
33802;SDS011;20110;53.120;5.786;2023-05-10T01:11:21;87.35;;;24.08;;
33802;SDS011;20110;53.120;5.786;2023-05-10T01:13:47;73.53;;;23.38;;
33802;SDS011;20110;53.120;5.786;2023-05-10T01:16:21;108.78;;;25.42;;
33802;SDS011;20110;53.120;5.786;2023-05-10T01:18:48;76.43;;;22.60;;
33802;SDS011;20110;53.120;5.786;2023-05-10T01:21:23;89.60;;;20.60;;
33802;SDS011;20110;53.120;5.786;2023-05-10T01:24:37;99.57;;;21.55;;
33802;SDS011;20110;53.120;5.786;2023-05-10T01:27:53;88.75;;;21.80;;
33802;SDS011;20110;53.120;5.786;2023-05-10T01:34:07;52.97;;;18.13;;
33802;SDS011;20110;53.120;5.786;2023-05-10T01:36:45;75.95;;;21.65;;
33802;SDS011;20110;53.120;5.786;2023-05-10T01:39:44;101.88;;;23.83;;
33802;SDS011;20110;53.120;5.786;2023-05-10T01:42:45;91.93;;;23.48;;
33802;SDS011;20110;53.120;5.786;2023-05-10T01:45:20;84.15;;;21.92;;
33802;SDS011;20110;53.120;5.786;2023-05-10T01:48:03;50.55;;;21.17;;
33802;SDS011;20110;53.120;5.786;2023-05-10T01:50:36;73.70;;;25.70;;
33802;SDS011;20110;53.120;5.786;2023-05-10T01:53:08;53.38;;;22.42;;
33802;SDS011;20110;53.120;5.786;2023-05-10T01:55:47;44.83;;;19.60;;
33802;SDS011;20110;53.120;5.786;2023-05-10T01:58:21;82.78;;;26.42;;
33802;SDS011;20110;53.120;5.786;2023-05-10T02:03:25;61.22;;;22.45;;
33802;SDS011;20110;53.120;5.786;2023-05-10T02:05:54;63.53;;;23.80;;
33802;SDS011;20110;53.120;5.786;2023-05-10T02:08:22;72.05;;;22.48;;
33802;SDS011;20110;53.120;5.786;2023-05-10T02:10:51;61.45;;;21.60;;
33802;SDS011;20110;53.120;5.786;2023-05-10T02:13:20;51.67;;;21.25;;
33802;SDS011;20110;53.120;5.786;2023-05-10T02:15:49;66.40;;;22.50;;
33802;SDS011;20110;53.120;5.786;2023-05-10T02:18:18;60.83;;;20.20;;
33802;SDS011;20110;53.120;5.786;2023-05-10T02:20:45;61.13;;;20.42;;
33802;SDS011;20110;53.120;5.786;2023-05-10T02:23:12;67.47;;;21.33;;
33802;SDS011;20110;53.120;5.786;2023-05-10T02:25:39;47.67;;;18.35;;
33802;SDS011;20110;53.120;5.786;2023-05-10T02:28:08;65.65;;;19.52;;
33802;SDS011;20110;53.120;5.786;2023-05-10T02:30:36;65.07;;;20.95;;
33802;SDS011;20110;53.120;5.786;2023-05-10T02:33:03;51.63;;;19.52;;
33802;SDS011;20110;53.120;5.786;2023-05-10T02:35:31;45.25;;;17.35;;
33802;SDS011;20110;53.120;5.786;2023-05-10T02:37:58;42.92;;;18.67;;
33802;SDS011;20110;53.120;5.786;2023-05-10T02:40:25;34.10;;;16.50;;
33802;SDS011;20110;53.120;5.786;2023-05-10T02:42:55;31.98;;;15.65;;
33802;SDS011;20110;53.120;5.786;2023-05-10T02:45:26;39.70;;;18.23;;
33802;SDS011;20110;53.120;5.786;2023-05-10T02:47:56;28.73;;;16.92;;
33802;SDS011;20110;53.120;5.786;2023-05-10T02:50:24;29.42;;;16.75;;
33802;SDS011;20110;53.120;5.786;2023-05-10T02:52:54;26.73;;;16.48;;
33802;SDS011;20110;53.120;5.786;2023-05-10T02:55:29;29.55;;;17.02;;
33802;SDS011;20110;53.120;5.786;2023-05-10T02:58:04;23.63;;;15.43;;
33802;SDS011;20110;53.120;5.786;2023-05-10T03:00:31;28.92;;;16.17;;
33802;SDS011;20110;53.120;5.786;2023-05-10T03:02:57;32.22;;;14.98;;
33802;SDS011;20110;53.120;5.786;2023-05-10T03:05:23;26.92;;;14.57;;
33802;SDS011;20110;53.120;5.786;2023-05-10T03:07:49;21.25;;;12.85;;
33802;SDS011;20110;53.120;5.786;2023-05-10T03:10:16;21.30;;;13.88;;
33802;SDS011;20110;53.120;5.786;2023-05-10T03:16:16;13.15;;;10.68;;
33802;SDS011;20110;53.120;5.786;2023-05-10T03:19:30;19.20;;;10.18;;
33802;SDS011;20110;53.120;5.786;2023-05-10T03:21:55;20.08;;;11.68;;
33802;SDS011;20110;53.120;5.786;2023-05-10T03:24:33;17.67;;;10.60;;
33802;SDS011;20110;53.120;5.786;2023-05-10T03:27:02;11.05;;;9.90;;
33802;SDS011;20110;53.120;5.786;2023-05-10T03:29:31;14.20;;;10.45;;
33802;SDS011;20110;53.120;5.786;2023-05-10T03:32:00;15.65;;;11.30;;
33802;SDS011;20110;53.120;5.786;2023-05-10T03:34:26;12.50;;;10.25;;
33802;SDS011;20110;53.120;5.786;2023-05-10T03:36:57;13.32;;;9.95;;
33802;SDS011;20110;53.120;5.786;2023-05-10T03:39:24;12.48;;;8.77;;
33802;SDS011;20110;53.120;5.786;2023-05-10T03:41:50;8.02;;;7.20;;
33802;SDS011;20110;53.120;5.786;2023-05-10T03:44:16;12.85;;;8.45;;
33802;SDS011;20110;53.120;5.786;2023-05-10T03:46:42;8.68;;;7.47;;
33802;SDS011;20110;53.120;5.786;2023-05-10T03:49:08;12.52;;;8.43;;
33802;SDS011;20110;53.120;5.786;2023-05-10T03:51:34;8.55;;;7.10;;
33802;SDS011;20110;53.120;5.786;2023-05-10T03:54:00;8.70;;;7.78;;
33802;SDS011;20110;53.120;5.786;2023-05-10T03:56:26;11.43;;;8.93;;
33802;SDS011;20110;53.120;5.786;2023-05-10T03:58:51;10.73;;;7.68;;
33802;SDS011;20110;53.120;5.786;2023-05-10T04:01:17;17.27;;;10.32;;
33802;SDS011;20110;53.120;5.786;2023-05-10T04:03:43;16.52;;;11.15;;
33802;SDS011;20110;53.120;5.786;2023-05-10T04:06:09;4.63;;;4.22;;
33802;SDS011;20110;53.120;5.786;2023-05-10T04:08:36;4.15;;;3.85;;
33802;SDS011;20110;53.120;5.786;2023-05-10T04:11:09;4.30;;;4.00;;
33802;SDS011;20110;53.120;5.786;2023-05-10T04:13:37;4.43;;;4.05;;
33802;SDS011;20110;53.120;5.786;2023-05-10T04:16:03;6.07;;;4.35;;
33802;SDS011;20110;53.120;5.786;2023-05-10T04:18:30;4.70;;;4.30;;
33802;SDS011;20110;53.120;5.786;2023-05-10T04:20:56;4.93;;;4.50;;
33802;SDS011;20110;53.120;5.786;2023-05-10T04:23:22;5.57;;;5.07;;
33802;SDS011;20110;53.120;5.786;2023-05-10T04:25:48;5.50;;;5.00;;
33802;SDS011;20110;53.120;5.786;2023-05-10T04:28:14;5.00;;;4.60;;
33802;SDS011;20110;53.120;5.786;2023-05-10T04:30:40;4.65;;;4.25;;
33802;SDS011;20110;53.120;5.786;2023-05-10T04:33:06;4.38;;;3.97;;
33802;SDS011;20110;53.120;5.786;2023-05-10T04:35:32;6.88;;;5.25;;
33802;SDS011;20110;53.120;5.786;2023-05-10T04:37:59;6.35;;;5.55;;
33802;SDS011;20110;53.120;5.786;2023-05-10T04:40:24;6.47;;;5.45;;
33802;SDS011;20110;53.120;5.786;2023-05-10T04:42:51;4.72;;;4.28;;
33802;SDS011;20110;53.120;5.786;2023-05-10T04:45:17;4.57;;;4.10;;
33802;SDS011;20110;53.120;5.786;2023-05-10T04:47:42;4.80;;;4.30;;
33802;SDS011;20110;53.120;5.786;2023-05-10T04:50:08;4.00;;;3.60;;
33802;SDS011;20110;53.120;5.786;2023-05-10T04:52:34;4.20;;;3.85;;
33802;SDS011;20110;53.120;5.786;2023-05-10T04:55:01;4.20;;;3.13;;
33802;SDS011;20110;53.120;5.786;2023-05-10T04:57:27;4.18;;;3.50;;
33802;SDS011;20110;53.120;5.786;2023-05-10T04:59:53;3.97;;;3.55;;
33802;SDS011;20110;53.120;5.786;2023-05-10T05:02:18;3.78;;;3.47;;
33802;SDS011;20110;53.120;5.786;2023-05-10T05:04:44;4.82;;;4.03;;
33802;SDS011;20110;53.120;5.786;2023-05-10T05:07:10;7.68;;;3.90;;
33802;SDS011;20110;53.120;5.786;2023-05-10T05:09:36;4.28;;;3.92;;
33802;SDS011;20110;53.120;5.786;2023-05-10T05:12:02;4.10;;;3.80;;
33802;SDS011;20110;53.120;5.786;2023-05-10T05:14:28;5.65;;;4.95;;
33802;SDS011;20110;53.120;5.786;2023-05-10T05:16:53;11.57;;;7.43;;
33802;SDS011;20110;53.120;5.786;2023-05-10T05:19:19;13.20;;;8.70;;
33802;SDS011;20110;53.120;5.786;2023-05-10T05:21:45;10.95;;;7.93;;
33802;SDS011;20110;53.120;5.786;2023-05-10T05:24:11;8.52;;;7.60;;
33802;SDS011;20110;53.120;5.786;2023-05-10T05:26:37;7.93;;;6.90;;
33802;SDS011;20110;53.120;5.786;2023-05-10T05:29:04;9.30;;;6.50;;
33802;SDS011;20110;53.120;5.786;2023-05-10T05:31:29;11.90;;;8.40;;
33802;SDS011;20110;53.120;5.786;2023-05-10T05:33:55;9.68;;;7.75;;
33802;SDS011;20110;53.120;5.786;2023-05-10T05:36:21;18.02;;;8.55;;
33802;SDS011;20110;53.120;5.786;2023-05-10T05:38:47;7.85;;;7.13;;
33802;SDS011;20110;53.120;5.786;2023-05-10T05:41:13;12.00;;;7.53;;
33802;SDS011;20110;53.120;5.786;2023-05-10T05:43:39;14.82;;;8.57;;
33802;SDS011;20110;53.120;5.786;2023-05-10T05:46:04;11.20;;;8.00;;
33802;SDS011;20110;53.120;5.786;2023-05-10T05:48:30;13.23;;;7.28;;
33802;SDS011;20110;53.120;5.786;2023-05-10T05:50:56;5.18;;;4.35;;
33802;SDS011;20110;53.120;5.786;2023-05-10T05:53:22;7.28;;;4.38;;
33802;SDS011;20110;53.120;5.786;2023-05-10T05:55:55;7.60;;;4.78;;
33802;SDS011;20110;53.120;5.786;2023-05-10T05:58:23;6.25;;;5.22;;
33802;SDS011;20110;53.120;5.786;2023-05-10T06:00:51;9.30;;;5.28;;
33802;SDS011;20110;53.120;5.786;2023-05-10T06:03:18;8.75;;;5.38;;
33802;SDS011;20110;53.120;5.786;2023-05-10T06:05:44;12.95;;;7.18;;
33802;SDS011;20110;53.120;5.786;2023-05-10T06:08:10;21.13;;;7.57;;
33802;SDS011;20110;53.120;5.786;2023-05-10T06:10:36;12.68;;;7.50;;
33802;SDS011;20110;53.120;5.786;2023-05-10T06:13:02;9.70;;;7.38;;
33802;SDS011;20110;53.120;5.786;2023-05-10T06:15:28;17.75;;;7.60;;
33802;SDS011;20110;53.120;5.786;2023-05-10T06:17:54;18.23;;;7.05;;
33802;SDS011;20110;53.120;5.786;2023-05-10T06:20:20;8.85;;;6.55;;
33802;SDS011;20110;53.120;5.786;2023-05-10T06:22:46;13.32;;;7.32;;
33802;SDS011;20110;53.120;5.786;2023-05-10T06:25:12;9.45;;;6.05;;
33802;SDS011;20110;53.120;5.786;2023-05-10T06:27:39;10.80;;;6.97;;
33802;SDS011;20110;53.120;5.786;2023-05-10T06:30:05;9.15;;;5.55;;
33802;SDS011;20110;53.120;5.786;2023-05-10T06:32:33;9.82;;;5.53;;
33802;SDS011;20110;53.120;5.786;2023-05-10T06:34:58;10.93;;;6.38;;
33802;SDS011;20110;53.120;5.786;2023-05-10T06:37:24;11.02;;;5.47;;
33802;SDS011;20110;53.120;5.786;2023-05-10T06:39:50;9.30;;;5.22;;
33802;SDS011;20110;53.120;5.786;2023-05-10T06:42:16;12.82;;;6.07;;
33802;SDS011;20110;53.120;5.786;2023-05-10T06:44:42;13.93;;;5.05;;
33802;SDS011;20110;53.120;5.786;2023-05-10T06:47:08;13.43;;;5.15;;
33802;SDS011;20110;53.120;5.786;2023-05-10T06:49:34;13.68;;;4.65;;
33802;SDS011;20110;53.120;5.786;2023-05-10T06:52:00;11.63;;;5.07;;
33802;SDS011;20110;53.120;5.786;2023-05-10T06:54:26;16.50;;;5.55;;
33802;SDS011;20110;53.120;5.786;2023-05-10T06:56:52;10.50;;;4.28;;
33802;SDS011;20110;53.120;5.786;2023-05-10T06:59:18;21.00;;;5.50;;
33802;SDS011;20110;53.120;5.786;2023-05-10T07:01:44;8.48;;;4.00;;
33802;SDS011;20110;53.120;5.786;2023-05-10T07:04:10;10.35;;;4.60;;
33802;SDS011;20110;53.120;5.786;2023-05-10T07:06:36;9.68;;;3.65;;
33802;SDS011;20110;53.120;5.786;2023-05-10T07:09:01;7.72;;;3.90;;
33802;SDS011;20110;53.120;5.786;2023-05-10T07:11:27;7.03;;;4.00;;
33802;SDS011;20110;53.120;5.786;2023-05-10T07:13:53;6.45;;;3.80;;
33802;SDS011;20110;53.120;5.786;2023-05-10T07:16:19;6.78;;;3.38;;
33802;SDS011;20110;53.120;5.786;2023-05-10T07:18:46;6.43;;;3.45;;
33802;SDS011;20110;53.120;5.786;2023-05-10T07:21:12;7.80;;;3.97;;
33802;SDS011;20110;53.120;5.786;2023-05-10T07:23:37;5.70;;;3.55;;
33802;SDS011;20110;53.120;5.786;2023-05-10T07:26:03;9.55;;;3.97;;
33802;SDS011;20110;53.120;5.786;2023-05-10T07:28:29;5.35;;;3.65;;
33802;SDS011;20110;53.120;5.786;2023-05-10T07:30:55;5.88;;;3.85;;
33802;SDS011;20110;53.120;5.786;2023-05-10T07:33:21;6.25;;;4.32;;
33802;SDS011;20110;53.120;5.786;2023-05-10T07:35:47;8.85;;;4.55;;
33802;SDS011;20110;53.120;5.786;2023-05-10T07:38:13;11.50;;;4.82;;
33802;SDS011;20110;53.120;5.786;2023-05-10T07:40:39;7.03;;;4.70;;
33802;SDS011;20110;53.120;5.786;2023-05-10T07:43:05;8.20;;;5.28;;
33802;SDS011;20110;53.120;5.786;2023-05-10T07:45:31;10.15;;;5.40;;
33802;SDS011;20110;53.120;5.786;2023-05-10T07:47:58;12.18;;;6.32;;
33802;SDS011;20110;53.120;5.786;2023-05-10T07:50:24;9.15;;;5.45;;
33802;SDS011;20110;53.120;5.786;2023-05-10T07:52:49;10.55;;;6.05;;
33802;SDS011;20110;53.120;5.786;2023-05-10T07:55:15;14.80;;;6.53;;
33802;SDS011;20110;53.120;5.786;2023-05-10T07:57:46;11.25;;;5.95;;
33802;SDS011;20110;53.120;5.786;2023-05-10T08:00:12;11.15;;;6.25;;
33802;SDS011;20110;53.120;5.786;2023-05-10T08:02:42;11.43;;;6.88;;
33802;SDS011;20110;53.120;5.786;2023-05-10T08:05:08;11.63;;;6.45;;
33802;SDS011;20110;53.120;5.786;2023-05-10T08:07:34;16.05;;;6.50;;
33802;SDS011;20110;53.120;5.786;2023-05-10T08:10:00;13.93;;;6.85;;
33802;SDS011;20110;53.120;5.786;2023-05-10T08:12:27;8.48;;;5.75;;
33802;SDS011;20110;53.120;5.786;2023-05-10T08:14:53;12.60;;;6.63;;
33802;SDS011;20110;53.120;5.786;2023-05-10T08:17:19;8.98;;;6.53;;
33802;SDS011;20110;53.120;5.786;2023-05-10T08:19:45;11.02;;;5.40;;
33802;SDS011;20110;53.120;5.786;2023-05-10T08:22:12;9.73;;;6.20;;
33802;SDS011;20110;53.120;5.786;2023-05-10T08:24:38;8.43;;;5.75;;
33802;SDS011;20110;53.120;5.786;2023-05-10T08:27:07;7.50;;;4.75;;
33802;SDS011;20110;53.120;5.786;2023-05-10T08:29:33;11.45;;;6.25;;
33802;SDS011;20110;53.120;5.786;2023-05-10T08:32:00;9.45;;;5.63;;
33802;SDS011;20110;53.120;5.786;2023-05-10T08:34:28;7.05;;;5.30;;
33802;SDS011;20110;53.120;5.786;2023-05-10T08:36:56;6.30;;;5.35;;
33802;SDS011;20110;53.120;5.786;2023-05-10T08:39:22;9.00;;;5.50;;
33802;SDS011;20110;53.120;5.786;2023-05-10T08:41:48;6.03;;;5.35;;
33802;SDS011;20110;53.120;5.786;2023-05-10T08:44:18;6.50;;;4.95;;
33802;SDS011;20110;53.120;5.786;2023-05-10T08:46:46;8.30;;;5.07;;
33802;SDS011;20110;53.120;5.786;2023-05-10T08:49:18;9.93;;;4.93;;
33802;SDS011;20110;53.120;5.786;2023-05-10T08:51:50;6.28;;;4.57;;
33802;SDS011;20110;53.120;5.786;2023-05-10T08:54:20;6.45;;;4.78;;
33802;SDS011;20110;53.120;5.786;2023-05-10T08:56:47;7.22;;;5.03;;
33802;SDS011;20110;53.120;5.786;2023-05-10T08:59:13;10.32;;;5.53;;
33802;SDS011;20110;53.120;5.786;2023-05-10T09:01:40;7.07;;;5.45;;
33802;SDS011;20110;53.120;5.786;2023-05-10T09:04:09;8.23;;;5.20;;
33802;SDS011;20110;53.120;5.786;2023-05-10T09:06:35;7.65;;;5.00;;
33802;SDS011;20110;53.120;5.786;2023-05-10T09:09:01;6.18;;;4.93;;
33802;SDS011;20110;53.120;5.786;2023-05-10T09:11:28;7.55;;;5.70;;
33802;SDS011;20110;53.120;5.786;2023-05-10T09:13:55;8.02;;;6.00;;
33802;SDS011;20110;53.120;5.786;2023-05-10T09:16:21;10.13;;;6.47;;
33802;SDS011;20110;53.120;5.786;2023-05-10T09:18:48;9.20;;;7.30;;
33802;SDS011;20110;53.120;5.786;2023-05-10T09:21:14;8.38;;;6.80;;
33802;SDS011;20110;53.120;5.786;2023-05-10T09:23:44;11.60;;;7.63;;
33802;SDS011;20110;53.120;5.786;2023-05-10T09:26:11;11.68;;;8.68;;
33802;SDS011;20110;53.120;5.786;2023-05-10T09:28:50;14.00;;;8.30;;
33802;SDS011;20110;53.120;5.786;2023-05-10T09:33:53;11.95;;;7.93;;
33802;SDS011;20110;53.120;5.786;2023-05-10T09:36:19;13.95;;;9.73;;
33802;SDS011;20110;53.120;5.786;2023-05-10T09:38:45;17.13;;;10.45;;
33802;SDS011;20110;53.120;5.786;2023-05-10T09:41:21;16.58;;;8.90;;
33802;SDS011;20110;53.120;5.786;2023-05-10T09:43:48;13.25;;;8.52;;
33802;SDS011;20110;53.120;5.786;2023-05-10T09:46:15;18.10;;;9.35;;
33802;SDS011;20110;53.120;5.786;2023-05-10T09:48:42;11.07;;;8.43;;
33802;SDS011;20110;53.120;5.786;2023-05-10T09:51:19;13.98;;;7.68;;
33802;SDS011;20110;53.120;5.786;2023-05-10T09:54:11;9.85;;;6.80;;
33802;SDS011;20110;53.120;5.786;2023-05-10T09:56:41;7.38;;;6.10;;
33802;SDS011;20110;53.120;5.786;2023-05-10T09:59:09;9.50;;;6.72;;
33802;SDS011;20110;53.120;5.786;2023-05-10T10:01:37;8.05;;;6.53;;
33802;SDS011;20110;53.120;5.786;2023-05-10T10:04:04;10.20;;;6.95;;
33802;SDS011;20110;53.120;5.786;2023-05-10T10:06:39;13.48;;;7.80;;
33802;SDS011;20110;53.120;5.786;2023-05-10T10:09:06;11.35;;;7.25;;
33802;SDS011;20110;53.120;5.786;2023-05-10T10:11:36;13.45;;;7.65;;
33802;SDS011;20110;53.120;5.786;2023-05-10T10:14:03;10.68;;;7.20;;
33802;SDS011;20110;53.120;5.786;2023-05-10T10:16:31;10.68;;;8.10;;
33802;SDS011;20110;53.120;5.786;2023-05-10T10:18:57;13.15;;;8.55;;
33802;SDS011;20110;53.120;5.786;2023-05-10T10:21:23;11.13;;;8.30;;
33802;SDS011;20110;53.120;5.786;2023-05-10T10:23:50;10.07;;;7.65;;
33802;SDS011;20110;53.120;5.786;2023-05-10T10:26:18;9.98;;;7.85;;
33802;SDS011;20110;53.120;5.786;2023-05-10T10:34:07;10.73;;;7.30;;
33802;SDS011;20110;53.120;5.786;2023-05-10T10:36:45;8.77;;;6.95;;
33802;SDS011;20110;53.120;5.786;2023-05-10T10:39:12;11.05;;;8.05;;
33802;SDS011;20110;53.120;5.786;2023-05-10T10:41:40;12.95;;;8.75;;
33802;SDS011;20110;53.120;5.786;2023-05-10T10:44:22;12.38;;;8.80;;
33802;SDS011;20110;53.120;5.786;2023-05-10T10:52:21;12.32;;;9.40;;
33802;SDS011;20110;53.120;5.786;2023-05-10T10:55:01;13.30;;;9.70;;
33802;SDS011;20110;53.120;5.786;2023-05-10T11:08:18;10.50;;;7.55;;
33802;SDS011;20110;53.120;5.786;2023-05-10T11:13:31;10.82;;;8.80;;
33802;SDS011;20110;53.120;5.786;2023-05-10T11:16:12;10.80;;;8.27;;
33802;SDS011;20110;53.120;5.786;2023-05-10T11:18:39;10.10;;;7.45;;
33802;SDS011;20110;53.120;5.786;2023-05-10T11:21:07;10.30;;;8.23;;
33802;SDS011;20110;53.120;5.786;2023-05-10T11:26:13;12.43;;;7.10;;
33802;SDS011;20110;53.120;5.786;2023-05-10T11:28:43;8.25;;;7.25;;
33802;SDS011;20110;53.120;5.786;2023-05-10T11:31:14;8.80;;;7.07;;
33802;SDS011;20110;53.120;5.786;2023-05-10T11:33:42;8.40;;;7.07;;
33802;SDS011;20110;53.120;5.786;2023-05-10T11:36:17;8.13;;;6.82;;
33802;SDS011;20110;53.120;5.786;2023-05-10T11:38:56;7.53;;;6.00;;
33802;SDS011;20110;53.120;5.786;2023-05-10T11:41:22;8.82;;;5.88;;
33802;SDS011;20110;53.120;5.786;2023-05-10T11:43:50;6.20;;;5.25;;
33802;SDS011;20110;53.120;5.786;2023-05-10T11:46:19;6.10;;;5.50;;
33802;SDS011;20110;53.120;5.786;2023-05-10T11:48:53;6.47;;;5.78;;
33802;SDS011;20110;53.120;5.786;2023-05-10T11:53:53;9.73;;;6.25;;
33802;SDS011;20110;53.120;5.786;2023-05-10T11:56:21;6.45;;;5.85;;
33802;SDS011;20110;53.120;5.786;2023-05-10T11:58:55;6.30;;;5.70;;
33802;SDS011;20110;53.120;5.786;2023-05-10T12:01:23;8.17;;;6.27;;
33802;SDS011;20110;53.120;5.786;2023-05-10T12:03:51;7.78;;;6.97;;
33802;SDS011;20110;53.120;5.786;2023-05-10T12:06:19;7.32;;;6.28;;
33802;SDS011;20110;53.120;5.786;2023-05-10T12:08:47;12.15;;;8.25;;
33802;SDS011;20110;53.120;5.786;2023-05-10T12:11:18;8.15;;;7.20;;
33802;SDS011;20110;53.120;5.786;2023-05-10T12:13:46;7.95;;;7.15;;
33802;SDS011;20110;53.120;5.786;2023-05-10T12:16:16;7.20;;;6.50;;
33802;SDS011;20110;53.120;5.786;2023-05-10T12:18:45;10.60;;;7.00;;
33802;SDS011;20110;53.120;5.786;2023-05-10T12:21:21;8.48;;;7.68;;
33802;SDS011;20110;53.120;5.786;2023-05-10T12:23:48;12.18;;;8.07;;
33802;SDS011;20110;53.120;5.786;2023-05-10T12:26:22;12.10;;;8.73;;
33802;SDS011;20110;53.120;5.786;2023-05-10T12:28:49;10.88;;;8.40;;
33802;SDS011;20110;53.120;5.786;2023-05-10T12:31:15;15.27;;;9.18;;
33802;SDS011;20110;53.120;5.786;2023-05-10T12:33:42;11.80;;;8.52;;
33802;SDS011;20110;53.120;5.786;2023-05-10T12:36:12;9.63;;;7.65;;
33802;SDS011;20110;53.120;5.786;2023-05-10T12:38:46;10.73;;;8.18;;
33802;SDS011;20110;53.120;5.786;2023-05-10T12:41:16;12.90;;;8.68;;
33802;SDS011;20110;53.120;5.786;2023-05-10T12:43:43;15.27;;;8.95;;
33802;SDS011;20110;53.120;5.786;2023-05-10T12:46:16;13.00;;;8.43;;
33802;SDS011;20110;53.120;5.786;2023-05-10T12:48:43;12.57;;;8.93;;
33802;SDS011;20110;53.120;5.786;2023-05-10T12:51:11;11.50;;;8.40;;
33802;SDS011;20110;53.120;5.786;2023-05-10T12:53:40;9.25;;;6.43;;
33802;SDS011;20110;53.120;5.786;2023-05-10T12:56:06;7.70;;;5.57;;
33802;SDS011;20110;53.120;5.786;2023-05-10T12:58:32;7.90;;;5.45;;
33802;SDS011;20110;53.120;5.786;2023-05-10T13:00:58;10.65;;;7.22;;
33802;SDS011;20110;53.120;5.786;2023-05-10T13:03:25;9.82;;;7.45;;
33802;SDS011;20110;53.120;5.786;2023-05-10T13:05:50;9.07;;;5.55;;
33802;SDS011;20110;53.120;5.786;2023-05-10T13:08:16;5.60;;;4.55;;
33802;SDS011;20110;53.120;5.786;2023-05-10T13:10:42;6.30;;;3.45;;
33802;SDS011;20110;53.120;5.786;2023-05-10T13:13:08;8.27;;;4.53;;
33802;SDS011;20110;53.120;5.786;2023-05-10T13:15:34;4.97;;;2.67;;
33802;SDS011;20110;53.120;5.786;2023-05-10T13:18:00;8.30;;;3.10;;
33802;SDS011;20110;53.120;5.786;2023-05-10T13:20:26;3.50;;;2.97;;
33802;SDS011;20110;53.120;5.786;2023-05-10T13:22:52;3.55;;;3.25;;
33802;SDS011;20110;53.120;5.786;2023-05-10T13:25:18;4.72;;;3.83;;
33802;SDS011;20110;53.120;5.786;2023-05-10T13:27:44;6.05;;;4.65;;
33802;SDS011;20110;53.120;5.786;2023-05-10T13:30:10;10.05;;;4.75;;
33802;SDS011;20110;53.120;5.786;2023-05-10T13:32:37;8.40;;;6.30;;
33802;SDS011;20110;53.120;5.786;2023-05-10T13:35:03;8.38;;;7.43;;
33802;SDS011;20110;53.120;5.786;2023-05-10T13:37:30;9.20;;;6.95;;
33802;SDS011;20110;53.120;5.786;2023-05-10T13:40:00;9.02;;;7.18;;
33802;SDS011;20110;53.120;5.786;2023-05-10T13:42:26;8.55;;;7.63;;
33802;SDS011;20110;53.120;5.786;2023-05-10T13:44:52;11.93;;;8.65;;
33802;SDS011;20110;53.120;5.786;2023-05-10T13:47:18;9.82;;;8.35;;
33802;SDS011;20110;53.120;5.786;2023-05-10T13:49:44;11.00;;;8.85;;
33802;SDS011;20110;53.120;5.786;2023-05-10T13:52:09;10.20;;;8.00;;
33802;SDS011;20110;53.120;5.786;2023-05-10T13:54:35;11.05;;;8.82;;
33802;SDS011;20110;53.120;5.786;2023-05-10T13:57:03;10.15;;;7.45;;
33802;SDS011;20110;53.120;5.786;2023-05-10T13:59:29;7.20;;;6.47;;
33802;SDS011;20110;53.120;5.786;2023-05-10T14:01:59;7.20;;;6.50;;
33802;SDS011;20110;53.120;5.786;2023-05-10T14:04:29;8.70;;;6.70;;
33802;SDS011;20110;53.120;5.786;2023-05-10T14:06:55;8.75;;;6.60;;
33802;SDS011;20110;53.120;5.786;2023-05-10T14:09:21;7.70;;;6.38;;
33802;SDS011;20110;53.120;5.786;2023-05-10T14:11:47;6.30;;;5.70;;
33802;SDS011;20110;53.120;5.786;2023-05-10T14:14:13;7.43;;;5.55;;
33802;SDS011;20110;53.120;5.786;2023-05-10T14:16:42;7.20;;;5.03;;
33802;SDS011;20110;53.120;5.786;2023-05-10T14:19:09;7.22;;;5.63;;
33802;SDS011;20110;53.120;5.786;2023-05-10T14:21:36;6.20;;;5.03;;
33802;SDS011;20110;53.120;5.786;2023-05-10T14:24:02;5.30;;;4.80;;
33802;SDS011;20110;53.120;5.786;2023-05-10T14:26:28;3.45;;;3.08;;
33802;SDS011;20110;53.120;5.786;2023-05-10T14:28:54;4.20;;;3.90;;
33802;SDS011;20110;53.120;5.786;2023-05-10T14:31:19;5.53;;;3.55;;
33802;SDS011;20110;53.120;5.786;2023-05-10T14:33:48;4.30;;;3.80;;
33802;SDS011;20110;53.120;5.786;2023-05-10T14:36:14;6.60;;;6.05;;
33802;SDS011;20110;53.120;5.786;2023-05-10T14:38:40;6.78;;;6.07;;
33802;SDS011;20110;53.120;5.786;2023-05-10T14:41:06;7.78;;;6.30;;
33802;SDS011;20110;53.120;5.786;2023-05-10T14:43:32;6.53;;;5.80;;
33802;SDS011;20110;53.120;5.786;2023-05-10T14:45:58;6.07;;;5.28;;
33802;SDS011;20110;53.120;5.786;2023-05-10T14:48:24;5.40;;;4.90;;
33802;SDS011;20110;53.120;5.786;2023-05-10T14:50:50;7.88;;;5.38;;
33802;SDS011;20110;53.120;5.786;2023-05-10T14:53:17;7.07;;;6.38;;
33802;SDS011;20110;53.120;5.786;2023-05-10T14:55:43;7.57;;;5.85;;
33802;SDS011;20110;53.120;5.786;2023-05-10T14:58:09;7.13;;;6.05;;
33802;SDS011;20110;53.120;5.786;2023-05-10T15:00:35;7.35;;;6.30;;
33802;SDS011;20110;53.120;5.786;2023-05-10T15:03:01;6.95;;;6.32;;
33802;SDS011;20110;53.120;5.786;2023-05-10T15:05:27;8.55;;;6.40;;
33802;SDS011;20110;53.120;5.786;2023-05-10T15:07:52;7.78;;;5.95;;
33802;SDS011;20110;53.120;5.786;2023-05-10T15:10:18;7.43;;;6.68;;
33802;SDS011;20110;53.120;5.786;2023-05-10T15:12:44;6.78;;;6.18;;
33802;SDS011;20110;53.120;5.786;2023-05-10T15:15:10;7.18;;;6.47;;
33802;SDS011;20110;53.120;5.786;2023-05-10T15:17:36;7.43;;;6.72;;
33802;SDS011;20110;53.120;5.786;2023-05-10T15:20:02;7.13;;;6.43;;
33802;SDS011;20110;53.120;5.786;2023-05-10T15:22:28;6.88;;;6.18;;
33802;SDS011;20110;53.120;5.786;2023-05-10T15:24:56;6.50;;;5.85;;